Time;durP1;ratioP1;P1;durP2;ratioP2;P2;SDS_P1;SDS_P2;PMS_P1;PMS_P2;Temp;Humidity;BMP_temperature;BMP_pressure;BME280_temperature;BME280_humidity;BME280_pressure;Samples;Min_cycle;Max_cycle;Signal;HPM_P1;HPM_P2
2022/10/14 00:02:20;;;;;;;0.70;0.70;;;;;;;;;;4938471;28;20240;-61
2022/10/14 00:04:46;;;;;;;0.90;0.90;;;;;;;;;;4947437;28;20233;-58
2022/10/14 00:07:12;;;;;;;0.83;0.83;;;;;;;;;;4926786;28;20631;-60
2022/10/14 00:09:40;;;;;;;0.90;0.90;;;;;;;;;;4940840;28;20262;-61
2022/10/14 00:12:06;;;;;;;0.90;0.90;;;;;;;;;;4938454;28;20304;-60
2022/10/14 00:14:32;;;;;;;0.80;0.80;;;;;;;;;;4924477;28;20222;-60
2022/10/14 00:16:58;;;;;;;1.00;1.00;;;;;;;;;;4924836;28;20334;-60
2022/10/14 00:19:24;;;;;;;0.70;0.70;;;;;;;;;;4968463;28;20261;-60
2022/10/14 00:21:50;;;;;;;0.70;0.70;;;;;;;;;;4954453;28;20309;-60
2022/10/14 00:24:17;;;;;;;1.00;1.00;;;;;;;;;;4956683;28;20603;-59
2022/10/14 00:26:43;;;;;;;0.80;0.80;;;;;;;;;;4957515;28;20387;-60
2022/10/14 00:29:11;;;;;;;0.90;0.90;;;;;;;;;;4966265;28;20221;-59
2022/10/14 00:31:37;;;;;;;0.77;0.77;;;;;;;;;;4963023;28;20237;-59
2022/10/14 00:34:03;;;;;;;0.80;0.80;;;;;;;;;;4963973;28;20227;-61
2022/10/14 00:36:29;;;;;;;0.80;0.80;;;;;;;;;;4972673;28;20229;-60
2022/10/14 00:38:55;;;;;;;0.80;0.80;;;;;;;;;;4960667;28;20292;-60
2022/10/14 00:41:22;;;;;;;1.00;1.00;;;;;;;;;;4956331;28;21879;-60
2022/10/14 00:43:53;;;;;;;0.70;0.70;;;;;;;;;;4960022;28;20765;-60
2022/10/14 00:46:19;;;;;;;0.80;0.80;;;;;;;;;;4957910;28;20787;-59
2022/10/14 00:48:45;;;;;;;0.73;0.73;;;;;;;;;;4966294;28;20367;-60
2022/10/14 00:51:11;;;;;;;0.70;0.70;;;;;;;;;;4957627;28;20226;-60
2022/10/14 00:53:37;;;;;;;0.80;0.80;;;;;;;;;;4960806;28;20305;-59
2022/10/14 00:56:03;;;;;;;0.73;0.73;;;;;;;;;;4933881;28;20234;-60
2022/10/14 00:58:29;;;;;;;0.70;0.70;;;;;;;;;;4963197;28;20226;-60
2022/10/14 01:00:55;;;;;;;0.90;0.90;;;;;;;;;;4930609;28;20245;-59
2022/10/14 01:03:21;;;;;;;0.90;0.90;;;;;;;;;;4955496;28;20317;-60
2022/10/14 01:05:49;;;;;;;0.97;0.97;;;;;;;;;;4960562;28;21488;-60
2022/10/14 01:08:18;;;;;;;0.70;0.70;;;;;;;;;;4949972;28;20224;-59
2022/10/14 01:10:44;;;;;;;0.80;0.80;;;;;;;;;;4925253;28;20227;-60
2022/10/14 01:13:17;;;;;;;0.90;0.90;;;;;;;;;;4946066;28;20225;-60
2022/10/14 01:16:01;;;;;;;0.70;0.70;;;;;;;;;;4951418;28;20264;-60
2022/10/14 01:18:30;;;;;;;0.90;0.90;;;;;;;;;;4962482;28;20233;-60
2022/10/14 01:20:58;;;;;;;0.70;0.70;;;;;;;;;;4930812;28;20727;-60
2022/10/14 01:24:04;;;;;;;0.90;0.90;;;;;;;;;;4943850;28;20686;-59
2022/10/14 01:26:48;;;;;;;0.70;0.70;;;;;;;;;;4864914;29;20244;-59
2022/10/14 01:29:33;;;;;;;0.90;0.90;;;;;;;;;;4868276;29;20752;-59
2022/10/14 01:32:01;;;;;;;0.97;0.97;;;;;;;;;;4913919;28;20249;-60
2022/10/14 01:34:28;;;;;;;0.70;0.70;;;;;;;;;;4936117;28;20582;-60
2022/10/14 01:36:55;;;;;;;0.70;0.70;;;;;;;;;;4952047;28;21124;-59
2022/10/14 01:39:23;;;;;;;0.80;0.80;;;;;;;;;;4952668;28;20316;-59
2022/10/14 01:41:51;;;;;;;0.80;0.80;;;;;;;;;;4938226;28;20595;-59
2022/10/14 01:44:17;;;;;;;0.70;0.70;;;;;;;;;;4946805;28;20217;-59
2022/10/14 01:46:43;;;;;;;0.80;0.80;;;;;;;;;;4950288;28;20218;-59
2022/10/14 01:49:10;;;;;;;0.70;0.70;;;;;;;;;;4955600;28;20230;-59
2022/10/14 01:51:40;;;;;;;0.80;0.80;;;;;;;;;;4931864;28;20383;-59
2022/10/14 01:54:08;;;;;;;0.90;0.90;;;;;;;;;;4939561;28;20297;-59
2022/10/14 01:56:34;;;;;;;0.70;0.70;;;;;;;;;;4932776;28;20219;-59
2022/10/14 01:59:00;;;;;;;0.80;0.80;;;;;;;;;;4939667;28;20611;-59
2022/10/14 02:01:26;;;;;;;0.90;0.90;;;;;;;;;;4936390;28;20695;-59
2022/10/14 02:03:52;;;;;;;0.70;0.70;;;;;;;;;;4950619;28;20234;-59
2022/10/14 02:06:26;;;;;;;0.70;0.70;;;;;;;;;;4944155;28;20284;-59
2022/10/14 02:08:52;;;;;;;1.00;1.00;;;;;;;;;;4958693;28;20224;-59
2022/10/14 02:11:18;;;;;;;0.70;0.70;;;;;;;;;;4956911;28;20888;-59
2022/10/14 02:13:44;;;;;;;0.80;0.80;;;;;;;;;;4959925;28;20983;-59
2022/10/14 02:16:10;;;;;;;0.90;0.90;;;;;;;;;;4956672;28;20258;-59
2022/10/14 02:18:40;;;;;;;0.70;0.70;;;;;;;;;;4932252;28;20258;-59
2022/10/14 02:21:33;;;;;;;0.70;0.70;;;;;;;;;;4926750;28;20397;-60
2022/10/14 02:24:03;;;;;;;0.90;0.90;;;;;;;;;;4911137;28;21782;-59
2022/10/14 02:26:29;;;;;;;0.70;0.70;;;;;;;;;;4916616;28;20226;-59
2022/10/14 02:28:55;;;;;;;0.80;0.80;;;;;;;;;;4928476;28;20224;-59
2022/10/14 02:31:22;;;;;;;0.70;0.70;;;;;;;;;;4935606;28;20241;-59
2022/10/14 02:33:51;;;;;;;0.80;0.80;;;;;;;;;;4928733;28;20591;-59
2022/10/14 02:36:17;;;;;;;0.70;0.70;;;;;;;;;;4928044;28;20645;-60
2022/10/14 02:38:43;;;;;;;0.90;0.90;;;;;;;;;;4926753;28;20483;-60
2022/10/14 02:41:11;;;;;;;0.90;0.90;;;;;;;;;;4920226;28;20227;-60
2022/10/14 02:43:37;;;;;;;0.80;0.80;;;;;;;;;;4921086;28;20625;-60
2022/10/14 02:46:03;;;;;;;0.80;0.80;;;;;;;;;;4932902;28;20231;-60
2022/10/14 02:48:28;;;;;;;0.80;0.80;;;;;;;;;;4922616;28;20604;-60
2022/10/14 02:50:54;;;;;;;0.70;0.70;;;;;;;;;;4927797;28;20226;-59
2022/10/14 02:53:20;;;;;;;0.80;0.80;;;;;;;;;;4922235;28;20766;-60
2022/10/14 02:55:46;;;;;;;0.90;0.90;;;;;;;;;;4924889;28;20218;-59
2022/10/14 02:58:12;;;;;;;0.80;0.80;;;;;;;;;;4918856;28;20240;-59
2022/10/14 03:00:38;;;;;;;0.90;0.90;;;;;;;;;;4925911;28;21206;-60
2022/10/14 03:03:04;;;;;;;0.80;0.80;;;;;;;;;;4909653;28;20769;-59
2022/10/14 03:05:30;;;;;;;0.80;0.80;;;;;;;;;;4936791;28;20233;-60
2022/10/14 03:07:56;;;;;;;0.80;0.80;;;;;;;;;;4938045;28;20230;-60
2022/10/14 03:10:22;;;;;;;0.77;0.77;;;;;;;;;;4933831;28;20227;-60
2022/10/14 03:12:48;;;;;;;0.80;0.80;;;;;;;;;;4946650;28;20239;-60
2022/10/14 03:15:14;;;;;;;0.60;0.60;;;;;;;;;;4933202;28;20665;-60
2022/10/14 03:17:40;;;;;;;0.80;0.80;;;;;;;;;;4928969;28;20250;-60
2022/10/14 03:20:06;;;;;;;0.83;0.83;;;;;;;;;;4920092;28;20224;-60
2022/10/14 03:22:32;;;;;;;0.80;0.80;;;;;;;;;;4922148;28;20306;-59
2022/10/14 03:24:58;;;;;;;0.70;0.70;;;;;;;;;;4924842;28;20477;-59
2022/10/14 03:27:24;;;;;;;0.70;0.70;;;;;;;;;;4940025;28;20542;-59
2022/10/14 03:29:50;;;;;;;0.80;0.80;;;;;;;;;;4938841;28;21378;-60
2022/10/14 03:32:16;;;;;;;0.70;0.70;;;;;;;;;;4927973;28;20310;-60
2022/10/14 03:34:42;;;;;;;0.77;0.77;;;;;;;;;;4940843;28;20234;-59
2022/10/14 03:37:08;;;;;;;0.90;0.90;;;;;;;;;;4930500;28;20293;-59
2022/10/14 03:39:34;;;;;;;0.80;0.80;;;;;;;;;;4927095;28;20219;-59
2022/10/14 03:42:00;;;;;;;0.90;0.90;;;;;;;;;;4910066;28;20227;-59
2022/10/14 03:44:26;;;;;;;0.70;0.70;;;;;;;;;;4940784;28;20226;-60
2022/10/14 03:46:51;;;;;;;0.70;0.70;;;;;;;;;;4924130;28;20222;-59
2022/10/14 03:49:17;;;;;;;0.80;0.80;;;;;;;;;;4929367;28;20306;-60
2022/10/14 03:51:43;;;;;;;0.80;0.80;;;;;;;;;;4927272;28;20231;-60
2022/10/14 03:54:09;;;;;;;0.70;0.70;;;;;;;;;;4937654;28;20227;-60
2022/10/14 03:56:35;;;;;;;0.80;0.80;;;;;;;;;;4934266;28;20244;-60
2022/10/14 03:59:01;;;;;;;0.80;0.80;;;;;;;;;;4936018;28;20707;-60
2022/10/14 04:01:27;;;;;;;0.70;0.70;;;;;;;;;;4916666;28;20649;-60
2022/10/14 04:03:53;;;;;;;0.90;0.90;;;;;;;;;;4933176;28;20714;-58
2022/10/14 04:06:19;;;;;;;0.90;0.90;;;;;;;;;;4910383;28;20231;-61
2022/10/14 04:08:45;;;;;;;1.00;1.00;;;;;;;;;;4926595;28;20230;-60
2022/10/14 04:11:11;;;;;;;0.80;0.80;;;;;;;;;;4928983;28;20229;-60
2022/10/14 04:13:37;;;;;;;1.00;1.00;;;;;;;;;;4924502;28;20231;-59
2022/10/14 04:16:07;;;;;;;0.73;0.73;;;;;;;;;;4911567;28;20699;-60
2022/10/14 04:18:33;;;;;;;0.80;0.80;;;;;;;;;;4956166;28;20250;-59
2022/10/14 04:21:00;;;;;;;0.90;0.90;;;;;;;;;;4953651;28;20715;-60
2022/10/14 04:23:26;;;;;;;0.77;0.77;;;;;;;;;;4953093;28;20618;-59
2022/10/14 04:25:52;;;;;;;0.90;0.90;;;;;;;;;;4945453;28;20295;-60
2022/10/14 04:28:18;;;;;;;0.80;0.80;;;;;;;;;;4925822;28;20232;-59
2022/10/14 04:30:44;;;;;;;0.77;0.77;;;;;;;;;;4955108;28;20225;-59
2022/10/14 04:33:10;;;;;;;0.90;0.90;;;;;;;;;;4924105;28;20677;-60
2022/10/14 04:35:36;;;;;;;0.77;0.77;;;;;;;;;;4947496;28;20213;-59
2022/10/14 04:38:02;;;;;;;0.70;0.70;;;;;;;;;;4951053;28;20294;-59
2022/10/14 04:40:29;;;;;;;0.90;0.90;;;;;;;;;;4928414;28;20227;-60
2022/10/14 04:42:56;;;;;;;0.70;0.70;;;;;;;;;;4934005;28;20729;-60
2022/10/14 04:45:22;;;;;;;0.70;0.70;;;;;;;;;;4911087;28;21032;-59
2022/10/14 04:47:48;;;;;;;0.80;0.80;;;;;;;;;;4928444;28;20301;-59
2022/10/14 04:50:14;;;;;;;0.90;0.90;;;;;;;;;;4929068;28;20228;-59
2022/10/14 04:52:40;;;;;;;0.83;0.83;;;;;;;;;;4960926;28;20231;-60
2022/10/14 04:55:06;;;;;;;0.80;0.80;;;;;;;;;;4952637;28;20222;-59
2022/10/14 04:57:32;;;;;;;0.80;0.80;;;;;;;;;;4933533;28;20246;-60
2022/10/14 04:59:58;;;;;;;0.90;0.90;;;;;;;;;;4957134;28;20228;-59
2022/10/14 05:02:24;;;;;;;0.80;0.80;;;;;;;;;;4961827;28;20337;-59
2022/10/14 05:04:50;;;;;;;0.90;0.90;;;;;;;;;;4959870;28;20258;-59
2022/10/14 05:07:16;;;;;;;1.00;1.00;;;;;;;;;;4940131;28;21834;-60
2022/10/14 05:09:42;;;;;;;0.70;0.70;;;;;;;;;;4935281;28;20707;-59
2022/10/14 05:12:08;;;;;;;0.70;0.70;;;;;;;;;;4946250;28;20226;-59
2022/10/14 05:14:34;;;;;;;0.90;0.90;;;;;;;;;;4958941;28;20226;-59
2022/10/14 05:17:00;;;;;;;0.77;0.77;;;;;;;;;;4940967;28;20280;-60
2022/10/14 05:19:26;;;;;;;0.80;0.80;;;;;;;;;;4962044;28;20721;-59
2022/10/14 05:21:52;;;;;;;0.90;0.90;;;;;;;;;;4956956;28;20271;-60
2022/10/14 05:24:18;;;;;;;0.70;0.70;;;;;;;;;;4965070;28;20237;-60
2022/10/14 05:26:44;;;;;;;0.80;0.80;;;;;;;;;;4956732;28;20264;-59
2022/10/14 05:29:11;;;;;;;0.80;0.80;;;;;;;;;;4949898;28;20360;-59
2022/10/14 05:31:37;;;;;;;0.80;0.80;;;;;;;;;;4939304;28;20724;-59
2022/10/14 05:34:03;;;;;;;1.00;1.00;;;;;;;;;;4964858;28;20222;-60
2022/10/14 05:36:29;;;;;;;0.80;0.80;;;;;;;;;;4947638;28;20227;-59
2022/10/14 05:38:57;;;;;;;0.80;0.80;;;;;;;;;;4949098;28;20300;-59
2022/10/14 05:41:23;;;;;;;0.70;0.70;;;;;;;;;;4950967;28;21885;-60
2022/10/14 05:43:49;;;;;;;0.87;0.87;;;;;;;;;;4962782;28;20305;-60
2022/10/14 05:46:15;;;;;;;0.90;0.90;;;;;;;;;;4958542;28;20223;-59
2022/10/14 05:48:41;;;;;;;0.80;0.80;;;;;;;;;;4961590;28;20364;-60
2022/10/14 05:51:07;;;;;;;0.90;0.90;;;;;;;;;;4945064;28;20708;-60
2022/10/14 05:53:33;;;;;;;0.80;0.80;;;;;;;;;;4951171;28;20772;-59
2022/10/14 05:56:05;;;;;;;0.90;0.90;;;;;;;;;;4964602;28;20230;-59
2022/10/14 05:58:31;;;;;;;0.90;0.90;;;;;;;;;;4953149;28;20266;-59
2022/10/14 06:01:03;;;;;;;0.90;0.90;;;;;;;;;;4964151;28;20231;-59
2022/10/14 06:03:29;;;;;;;0.90;0.90;;;;;;;;;;4956467;28;20314;-59
2022/10/14 06:05:55;;;;;;;0.70;0.70;;;;;;;;;;4954926;28;20708;-60
2022/10/14 06:08:22;;;;;;;0.80;0.80;;;;;;;;;;4975350;28;20217;-59
2022/10/14 06:10:48;;;;;;;0.80;0.80;;;;;;;;;;4943061;28;20607;-60
2022/10/14 06:13:14;;;;;;;0.80;0.80;;;;;;;;;;4965090;28;20230;-60
2022/10/14 06:15:40;;;;;;;0.90;0.90;;;;;;;;;;4967538;28;20222;-60
2022/10/14 06:18:06;;;;;;;0.70;0.70;;;;;;;;;;4965390;28;20798;-60
2022/10/14 06:20:32;;;;;;;0.70;0.70;;;;;;;;;;4972735;28;20218;-59
2022/10/14 06:22:58;;;;;;;0.83;0.83;;;;;;;;;;4971033;28;20229;-60
2022/10/14 06:25:24;;;;;;;0.90;0.90;;;;;;;;;;4961158;28;20254;-59
2022/10/14 06:27:50;;;;;;;0.90;0.90;;;;;;;;;;4967884;28;20309;-60
2022/10/14 06:30:16;;;;;;;0.90;0.90;;;;;;;;;;4965505;28;20384;-60
2022/10/14 06:32:42;;;;;;;0.80;0.80;;;;;;;;;;4960101;28;20824;-60
2022/10/14 06:35:08;;;;;;;0.80;0.80;;;;;;;;;;4958540;28;20236;-60
2022/10/14 06:37:34;;;;;;;0.80;0.80;;;;;;;;;;4962969;28;20253;-60
2022/10/14 06:40:00;;;;;;;1.00;1.00;;;;;;;;;;4955769;28;20223;-61
2022/10/14 06:42:26;;;;;;;0.90;0.90;;;;;;;;;;4953026;28;20359;-60
2022/10/14 06:44:52;;;;;;;0.90;0.90;;;;;;;;;;4952537;28;20234;-60
2022/10/14 06:47:18;;;;;;;0.90;0.90;;;;;;;;;;4955266;28;20225;-60
2022/10/14 06:49:44;;;;;;;0.80;0.80;;;;;;;;;;4961966;28;20222;-60
2022/10/14 06:52:10;;;;;;;0.70;0.70;;;;;;;;;;4959894;28;20233;-60
2022/10/14 06:54:36;;;;;;;1.00;1.00;;;;;;;;;;4954653;28;20252;-60
2022/10/14 06:57:02;;;;;;;1.10;1.10;;;;;;;;;;4956905;28;20311;-60
2022/10/14 06:59:28;;;;;;;1.03;1.03;;;;;;;;;;4973417;28;20705;-61
2022/10/14 07:01:54;;;;;;;1.00;1.00;;;;;;;;;;4962012;28;20250;-60
2022/10/14 07:04:20;;;;;;;1.03;1.03;;;;;;;;;;4948815;28;20764;-60
2022/10/14 07:06:46;;;;;;;0.90;0.90;;;;;;;;;;4944201;28;20232;-60
2022/10/14 07:09:12;;;;;;;0.97;0.97;;;;;;;;;;4954399;28;20227;-60
2022/10/14 07:11:38;;;;;;;0.83;0.83;;;;;;;;;;4962082;28;20248;-60
2022/10/14 07:14:04;;;;;;;0.87;0.87;;;;;;;;;;4963329;28;20260;-60
2022/10/14 07:16:30;;;;;;;1.00;1.00;;;;;;;;;;4915920;28;20230;-60
2022/10/14 07:18:56;;;;;;;1.00;1.00;;;;;;;;;;4901674;28;20238;-60
2022/10/14 07:21:22;;;;;;;1.00;1.00;;;;;;;;;;4921501;28;20238;-60
2022/10/14 07:23:48;;;;;;;0.90;0.90;;;;;;;;;;4908470;28;20856;-60
2022/10/14 07:26:14;;;;;;;0.80;0.80;;;;;;;;;;4919315;28;20286;-60
2022/10/14 07:28:40;;;;;;;0.80;0.80;;;;;;;;;;4931533;28;20227;-60
2022/10/14 07:31:07;;;;;;;0.90;0.90;;;;;;;;;;4918907;28;20256;-59
2022/10/14 07:33:33;;;;;;;1.10;1.10;;;;;;;;;;4930676;28;20229;-60
2022/10/14 07:36:01;;;;;;;0.80;0.80;;;;;;;;;;4922591;28;20712;-60
2022/10/14 07:38:26;;;;;;;0.97;0.97;;;;;;;;;;4928102;28;20235;-60
2022/10/14 07:41:02;;;;;;;0.80;0.80;;;;;;;;;;4929668;28;20760;-59
2022/10/14 07:43:28;;;;;;;1.00;1.00;;;;;;;;;;4930660;28;20283;-60
2022/10/14 07:46:00;;;;;;;0.80;0.80;;;;;;;;;;4933896;28;20218;-59
2022/10/14 07:48:27;;;;;;;1.00;1.00;;;;;;;;;;4931478;28;20230;-60
2022/10/14 07:50:53;;;;;;;0.90;0.90;;;;;;;;;;4923922;28;20655;-59
2022/10/14 07:53:19;;;;;;;0.80;0.80;;;;;;;;;;4931852;28;20224;-60
2022/10/14 07:55:50;;;;;;;0.80;0.80;;;;;;;;;;4915374;28;20292;-60
2022/10/14 07:58:17;;;;;;;1.00;1.00;;;;;;;;;;4901279;28;20242;-60
2022/10/14 08:00:44;;;;;;;1.00;1.00;;;;;;;;;;4894749;28;20802;-60
2022/10/14 08:03:10;;;;;;;0.80;0.80;;;;;;;;;;4894785;28;20666;-60
2022/10/14 08:05:36;;;;;;;0.97;0.97;;;;;;;;;;4899693;28;20229;-60
2022/10/14 08:08:02;;;;;;;0.90;0.90;;;;;;;;;;4926812;28;21689;-60
2022/10/14 08:10:28;;;;;;;1.00;1.00;;;;;;;;;;4919306;28;20246;-60
2022/10/14 08:12:56;;;;;;;0.80;0.80;;;;;;;;;;4920025;28;20223;-59
2022/10/14 08:15:24;;;;;;;0.90;0.90;;;;;;;;;;4925944;28;20243;-60
2022/10/14 08:17:50;;;;;;;0.90;0.90;;;;;;;;;;4927084;28;20275;-59
2022/10/14 08:20:16;;;;;;;0.90;0.90;;;;;;;;;;4917984;28;20326;-60
2022/10/14 08:22:42;;;;;;;0.90;0.90;;;;;;;;;;4937275;28;20335;-60
2022/10/14 08:25:08;;;;;;;0.80;0.80;;;;;;;;;;4935405;28;20232;-59
2022/10/14 08:27:34;;;;;;;0.80;0.80;;;;;;;;;;4930211;28;20277;-60
2022/10/14 08:30:00;;;;;;;1.00;1.00;;;;;;;;;;4932455;28;20321;-60
2022/10/14 08:32:26;;;;;;;0.80;0.80;;;;;;;;;;4922078;28;20231;-60
2022/10/14 08:34:54;;;;;;;1.10;1.10;;;;;;;;;;4911834;28;21631;-60
2022/10/14 08:37:20;;;;;;;1.10;1.10;;;;;;;;;;4939553;28;21254;-60
2022/10/14 08:39:46;;;;;;;0.90;0.90;;;;;;;;;;4911339;28;20232;-60
2022/10/14 08:42:14;;;;;;;0.93;0.93;;;;;;;;;;4892933;28;21049;-60
2022/10/14 08:44:54;;;;;;;0.90;0.90;;;;;;;;;;4889795;28;20234;-60
2022/10/14 08:47:21;;;;;;;0.90;0.90;;;;;;;;;;4893194;28;20637;-60
2022/10/14 08:49:58;;;;;;;0.90;0.90;;;;;;;;;;4875146;28;20232;-60
2022/10/14 08:52:29;;;;;;;0.90;0.90;;;;;;;;;;4865004;28;20240;-60
2022/10/14 08:54:57;;;;;;;0.90;0.90;;;;;;;;;;4860469;28;21689;-60
2022/10/14 08:57:27;;;;;;;1.00;1.00;;;;;;;;;;4888807;28;20372;-60
2022/10/14 08:59:53;;;;;;;0.90;0.90;;;;;;;;;;4882345;28;20220;-60
2022/10/14 09:02:28;;;;;;;0.90;0.90;;;;;;;;;;4895516;28;20226;-60
2022/10/14 09:04:54;;;;;;;1.10;1.10;;;;;;;;;;4892297;28;20227;-59
2022/10/14 09:07:20;;;;;;;0.90;0.90;;;;;;;;;;4916407;28;20231;-60
2022/10/14 09:09:51;;;;;;;0.90;0.90;;;;;;;;;;4877091;28;21202;-59
2022/10/14 09:12:19;;;;;;;0.90;0.90;;;;;;;;;;4882781;28;20375;-60
2022/10/14 09:14:53;;;;;;;1.10;1.10;;;;;;;;;;4881140;28;20236;-60
2022/10/14 09:17:21;;;;;;;0.90;0.90;;;;;;;;;;4893126;28;20946;-60
2022/10/14 09:19:51;;;;;;;1.00;1.00;;;;;;;;;;4910558;28;20263;-60
2022/10/14 09:22:17;;;;;;;1.00;1.00;;;;;;;;;;4897796;28;20262;-60
2022/10/14 09:24:45;;;;;;;0.90;0.90;;;;;;;;;;4880523;28;20701;-60
2022/10/14 09:27:20;;;;;;;0.90;0.90;;;;;;;;;;4897978;28;20599;-60
2022/10/14 09:29:53;;;;;;;0.90;0.90;;;;;;;;;;4906836;28;20240;-60
2022/10/14 09:32:25;;;;;;;1.10;1.10;;;;;;;;;;4892382;28;20704;-60
2022/10/14 09:34:51;;;;;;;1.17;1.17;;;;;;;;;;4914921;28;20239;-60
2022/10/14 09:37:20;;;;;;;1.00;1.00;;;;;;;;;;4892947;28;20231;-60
2022/10/14 09:39:46;;;;;;;1.00;1.00;;;;;;;;;;4896414;28;20642;-60
2022/10/14 09:42:33;;;;;;;0.80;0.80;;;;;;;;;;4916486;28;20263;-60
2022/10/14 09:45:06;;;;;;;0.80;0.80;;;;;;;;;;4892370;28;20246;-60
2022/10/14 09:47:34;;;;;;;0.70;0.70;;;;;;;;;;4922475;28;20262;-60
2022/10/14 09:50:00;;;;;;;0.60;0.60;;;;;;;;;;4905025;28;20736;-60
2022/10/14 09:52:26;;;;;;;0.80;0.80;;;;;;;;;;4919586;28;20309;-60
2022/10/14 09:54:57;;;;;;;0.90;0.90;;;;;;;;;;4913964;28;20301;-60
2022/10/14 09:57:23;;;;;;;0.90;0.90;;;;;;;;;;4911883;28;20233;-60
2022/10/14 09:59:56;;;;;;;1.00;1.00;;;;;;;;;;4922972;28;20241;-60
2022/10/14 10:02:25;;;;;;;0.97;0.97;;;;;;;;;;4884418;28;21011;-60
2022/10/14 10:04:53;;;;;;;1.10;1.10;;;;;;;;;;4925158;28;20230;-60
2022/10/14 10:07:29;;;;;;;1.00;1.00;;;;;;;;;;4897763;28;20237;-60
2022/10/14 10:09:56;;;;;;;1.10;1.10;;;;;;;;;;4897886;28;20763;-60
2022/10/14 10:12:32;;;;;;;0.90;0.90;;;;;;;;;;4939286;28;20293;-60
2022/10/14 10:14:59;;;;;;;1.00;1.00;;;;;;;;;;4915730;28;20322;-60
2022/10/14 10:17:26;;;;;;;0.90;0.90;;;;;;;;;;4896982;28;20235;-60
2022/10/14 10:19:52;;;;;;;0.90;0.90;;;;;;;;;;4886503;28;20234;-60
2022/10/14 10:22:21;;;;;;;1.10;1.10;;;;;;;;;;4889523;28;20232;-60
2022/10/14 10:24:48;;;;;;;1.00;1.00;;;;;;;;;;4930542;28;20221;-60
2022/10/14 10:27:27;;;;;;;1.00;1.00;;;;;;;;;;4880364;28;20230;-61
2022/10/14 10:29:56;;;;;;;1.00;1.00;;;;;;;;;;4903626;28;20342;-61
2022/10/14 10:32:28;;;;;;;0.90;0.90;;;;;;;;;;4908813;28;20599;-61
2022/10/14 10:35:13;;;;;;;1.00;1.00;;;;;;;;;;4899062;28;20224;-61
2022/10/14 10:37:44;;;;;;;0.90;0.90;;;;;;;;;;4925663;28;20237;-60
2022/10/14 10:40:17;;;;;;;1.00;1.00;;;;;;;;;;4944602;28;20265;-61
2022/10/14 10:42:48;;;;;;;1.10;1.10;;;;;;;;;;4930529;28;20232;-61
2022/10/14 10:45:32;;;;;;;0.90;0.90;;;;;;;;;;4942044;28;20222;-60
2022/10/14 10:48:00;;;;;;;0.90;0.90;;;;;;;;;;4949515;28;20724;-60
2022/10/14 10:50:43;;;;;;;1.00;1.00;;;;;;;;;;4941474;28;20294;-60
2022/10/14 10:53:28;;;;;;;1.00;1.00;;;;;;;;;;4917913;28;20356;-60
2022/10/14 10:55:54;;;;;;;1.00;1.00;;;;;;;;;;4956284;28;20691;-60
2022/10/14 10:58:26;;;;;;;0.93;0.93;;;;;;;;;;4947212;28;21267;-60
2022/10/14 11:01:04;;;;;;;1.20;1.20;;;;;;;;;;4937259;28;20289;-60
2022/10/14 11:03:49;;;;;;;1.00;1.00;;;;;;;;;;4960840;28;20221;-60
2022/10/14 11:12:01;;;;;;;1.10;1.10;;;;;;;;;;4936452;28;20288;-61
2022/10/14 11:12:02;;;;;;;1.00;1.00;;;;;;;;;;4939272;28;20359;-60
2022/10/14 11:14:45;;;;;;;1.00;1.00;;;;;;;;;;4955157;28;20259;-60
2022/10/14 11:17:14;;;;;;;0.90;0.90;;;;;;;;;;4931542;28;20326;-60
2022/10/14 11:19:58;;;;;;;0.90;0.90;;;;;;;;;;4924769;28;20287;-60
2022/10/14 11:22:27;;;;;;;0.90;0.90;;;;;;;;;;4926384;28;20826;-60
2022/10/14 11:25:03;;;;;;;1.07;1.07;;;;;;;;;;4964752;28;20233;-60
2022/10/14 11:27:31;;;;;;;1.00;1.00;;;;;;;;;;4949814;28;20280;-60
2022/10/14 11:29:57;;;;;;;1.00;1.00;;;;;;;;;;4931377;28;20739;-60
2022/10/14 11:32:27;;;;;;;1.00;1.00;;;;;;;;;;4939364;28;21913;-60
2022/10/14 11:35:11;;;;;;;0.90;0.90;;;;;;;;;;4923293;28;20224;-60
2022/10/14 11:37:44;;;;;;;0.90;0.90;;;;;;;;;;4921564;28;20227;-60
2022/10/14 11:40:24;;;;;;;1.00;1.00;;;;;;;;;;4942305;28;20620;-60
2022/10/14 11:42:51;;;;;;;1.00;1.00;;;;;;;;;;4938041;28;20227;-60
2022/10/14 11:45:17;;;;;;;0.90;0.90;;;;;;;;;;4922567;28;20704;-60
2022/10/14 11:47:43;;;;;;;0.90;0.90;;;;;;;;;;4927310;28;20264;-60
2022/10/14 11:50:14;;;;;;;1.00;1.00;;;;;;;;;;4936642;28;20230;-60
2022/10/14 11:52:42;;;;;;;1.10;1.10;;;;;;;;;;4914864;28;20246;-60
2022/10/14 11:55:19;;;;;;;1.00;1.00;;;;;;;;;;4933813;28;20283;-60
2022/10/14 11:57:46;;;;;;;1.00;1.00;;;;;;;;;;4922395;28;20226;-60
2022/10/14 12:00:13;;;;;;;1.00;1.00;;;;;;;;;;4917010;28;20773;-60
2022/10/14 12:02:57;;;;;;;1.00;1.00;;;;;;;;;;4926964;28;20786;-60
2022/10/14 12:05:44;;;;;;;0.90;0.90;;;;;;;;;;4942196;28;20325;-60
2022/10/14 12:08:24;;;;;;;1.00;1.00;;;;;;;;;;4941098;28;20584;-60
2022/10/14 12:11:00;;;;;;;1.10;1.10;;;;;;;;;;4938563;28;20253;-60
2022/10/14 12:13:46;;;;;;;1.00;1.00;;;;;;;;;;4925385;28;20723;-60
2022/10/14 12:16:13;;;;;;;1.07;1.07;;;;;;;;;;4900137;28;20290;-59
2022/10/14 12:18:39;;;;;;;1.00;1.00;;;;;;;;;;4930598;28;20703;-60
2022/10/14 12:21:11;;;;;;;1.10;1.10;;;;;;;;;;4907269;28;20285;-59
2022/10/14 12:23:38;;;;;;;1.20;1.20;;;;;;;;;;4932654;28;20235;-60
2022/10/14 12:26:06;;;;;;;0.90;0.90;;;;;;;;;;4938514;28;20235;-59
2022/10/14 12:28:32;;;;;;;1.00;1.00;;;;;;;;;;4919875;28;20227;-60
2022/10/14 12:31:18;;;;;;;1.00;1.00;;;;;;;;;;4901274;28;20220;-60
2022/10/14 12:34:03;;;;;;;1.10;1.10;;;;;;;;;;4912007;28;20231;-62
2022/10/14 12:36:32;;;;;;;1.20;1.20;;;;;;;;;;4912045;28;20235;-61
2022/10/14 12:39:16;;;;;;;1.00;1.00;;;;;;;;;;4915566;28;20587;-62
2022/10/14 12:41:46;;;;;;;1.00;1.00;;;;;;;;;;4932564;28;20238;-62
2022/10/14 12:44:13;;;;;;;1.00;1.00;;;;;;;;;;4894345;28;20337;-62
2022/10/14 12:46:45;;;;;;;1.00;1.00;;;;;;;;;;4902096;28;20363;-61
2022/10/14 12:49:31;;;;;;;1.20;1.20;;;;;;;;;;4912427;28;20232;-62
2022/10/14 12:51:58;;;;;;;1.13;1.13;;;;;;;;;;4884386;28;20231;-61
2022/10/14 12:54:24;;;;;;;1.00;1.00;;;;;;;;;;4891709;28;20257;-61
2022/10/14 12:57:04;;;;;;;1.00;1.00;;;;;;;;;;4918863;28;20305;-62
2022/10/14 12:59:31;;;;;;;1.00;1.00;;;;;;;;;;4903145;28;20653;-62
2022/10/14 13:02:01;;;;;;;1.10;1.10;;;;;;;;;;4916666;28;20227;-62
2022/10/14 13:04:27;;;;;;;1.10;1.10;;;;;;;;;;4887999;28;20243;-62
2022/10/14 13:07:13;;;;;;;1.10;1.10;;;;;;;;;;4936868;28;20235;-61
2022/10/14 13:09:39;;;;;;;1.30;1.30;;;;;;;;;;4900551;28;20587;-61
2022/10/14 13:12:21;;;;;;;1.10;1.10;;;;;;;;;;4906934;28;20238;-61
2022/10/14 13:14:58;;;;;;;1.20;1.20;;;;;;;;;;4912565;28;20314;-62
2022/10/14 13:17:28;;;;;;;1.00;1.00;;;;;;;;;;4936124;28;20719;-62
2022/10/14 13:19:54;;;;;;;1.00;1.00;;;;;;;;;;4939326;28;20228;-62
2022/10/14 13:22:30;;;;;;;1.00;1.00;;;;;;;;;;4944751;28;20652;-62
2022/10/14 13:25:06;;;;;;;1.00;1.00;;;;;;;;;;4946248;28;20225;-63
2022/10/14 13:27:34;;;;;;;0.90;0.90;;;;;;;;;;4948360;28;20612;-61
2022/10/14 13:30:12;;;;;;;1.00;1.00;;;;;;;;;;4939088;28;20700;-62
2022/10/14 13:32:49;;;;;;;1.00;1.00;;;;;;;;;;4944471;28;20237;-62
2022/10/14 13:35:21;;;;;;;1.00;1.00;;;;;;;;;;4956957;28;20236;-62
2022/10/14 13:38:01;;;;;;;1.00;1.00;;;;;;;;;;4934269;28;20731;-63
2022/10/14 13:40:33;;;;;;;1.00;1.00;;;;;;;;;;4952683;28;20320;-61
2022/10/14 13:43:00;;;;;;;1.00;1.00;;;;;;;;;;4931901;28;20234;-61
2022/10/14 13:45:28;;;;;;;1.00;1.00;;;;;;;;;;4933354;28;20233;-63
2022/10/14 13:47:54;;;;;;;1.00;1.00;;;;;;;;;;4939054;28;20727;-62
2022/10/14 13:50:24;;;;;;;1.00;1.00;;;;;;;;;;4948595;28;20232;-62
2022/10/14 13:52:57;;;;;;;1.10;1.10;;;;;;;;;;4940935;28;20242;-64
2022/10/14 13:55:23;;;;;;;1.00;1.00;;;;;;;;;;4912990;28;20228;-65
2022/10/14 13:58:08;;;;;;;1.00;1.00;;;;;;;;;;4956097;28;20225;-61
2022/10/14 14:00:35;;;;;;;0.90;0.90;;;;;;;;;;4925813;28;20296;-61
2022/10/14 14:03:08;;;;;;;1.00;1.00;;;;;;;;;;4885769;28;20853;-62
2022/10/14 14:05:35;;;;;;;0.90;0.90;;;;;;;;;;4933396;28;20230;-61
2022/10/14 14:08:00;;;;;;;1.00;1.00;;;;;;;;;;4914880;28;20231;-62
2022/10/14 14:10:26;;;;;;;1.00;1.00;;;;;;;;;;4922960;28;20286;-61
2022/10/14 14:12:52;;;;;;;1.03;1.03;;;;;;;;;;4950387;28;20233;-61
2022/10/14 14:15:22;;;;;;;0.97;0.97;;;;;;;;;;4949561;28;20532;-61
2022/10/14 14:17:48;;;;;;;1.00;1.00;;;;;;;;;;4924103;28;20816;-62
2022/10/14 14:20:17;;;;;;;1.10;1.10;;;;;;;;;;4900462;28;20227;-60
2022/10/14 14:22:43;;;;;;;0.90;0.90;;;;;;;;;;4909579;28;20306;-60
2022/10/14 14:25:09;;;;;;;1.00;1.00;;;;;;;;;;4907112;28;20639;-61
2022/10/14 14:27:35;;;;;;;1.10;1.10;;;;;;;;;;4916935;28;20615;-60
2022/10/14 14:30:07;;;;;;;0.90;0.90;;;;;;;;;;4888783;28;20409;-60
2022/10/14 14:32:33;;;;;;;1.00;1.00;;;;;;;;;;4913109;28;20284;-60
2022/10/14 14:34:59;;;;;;;1.00;1.00;;;;;;;;;;4926870;28;20297;-61
2022/10/14 14:37:25;;;;;;;1.10;1.10;;;;;;;;;;4915916;28;20237;-61
2022/10/14 14:39:58;;;;;;;1.00;1.00;;;;;;;;;;4915006;28;21328;-60
2022/10/14 14:42:24;;;;;;;0.90;0.90;;;;;;;;;;4904343;28;20244;-61
2022/10/14 14:44:50;;;;;;;1.00;1.00;;;;;;;;;;4926989;28;20813;-61
2022/10/14 14:47:16;;;;;;;0.90;0.90;;;;;;;;;;4923477;28;20582;-60
2022/10/14 14:49:44;;;;;;;1.00;1.00;;;;;;;;;;4910933;28;20259;-60
2022/10/14 14:52:11;;;;;;;1.20;1.20;;;;;;;;;;4904123;28;20232;-61
2022/10/14 14:54:37;;;;;;;0.90;0.90;;;;;;;;;;4904581;28;20216;-60
2022/10/14 14:57:04;;;;;;;0.90;0.90;;;;;;;;;;4909438;28;20299;-60